Time;durP1;ratioP1;P1;durP2;ratioP2;P2;SDS_P1;SDS_P2;PMS_P1;PMS_P2;Temp;Humidity;BMP_temperature;BMP_pressure;BME280_temperature;BME280_humidity;BME280_pressure;Samples;Min_cycle;Max_cycle;Signal;HPM_P1;HPM_P2
2023/10/25 00:00:59;;;;;;;3.37;3.07;;;;;;;;;;6147882;23;20415;-95
2023/10/25 00:03:25;;;;;;;3.70;3.37;;;;;;;;;;6144804;23;20371;-95
2023/10/25 00:05:51;;;;;;;3.60;2.70;;;;;;;;;;6147227;23;20387;-95
2023/10/25 00:08:17;;;;;;;2.90;2.63;;;;;;;;;;6193192;23;20390;-93
2023/10/25 00:10:43;;;;;;;3.37;3.07;;;;;;;;;;6205203;23;20382;-94
2023/10/25 00:13:09;;;;;;;5.37;2.70;;;;;;;;;;6205156;23;20386;-94
2023/10/25 00:15:35;;;;;;;4.03;2.80;;;;;;;;;;6207850;23;20725;-94
2023/10/25 00:18:01;;;;;;;3.23;2.33;;;;;;;;;;6206051;23;20436;-96
2023/10/25 00:20:27;;;;;;;3.17;2.57;;;;;;;;;;6209337;23;20390;-95
2023/10/25 00:22:53;;;;;;;3.67;3.37;;;;;;;;;;6206981;23;20386;-94
2023/10/25 00:25:19;;;;;;;2.90;2.40;;;;;;;;;;6208419;23;20772;-94
2023/10/25 00:27:45;;;;;;;4.20;3.20;;;;;;;;;;6204797;23;20386;-94
2023/10/25 00:30:12;;;;;;;4.07;3.60;;;;;;;;;;6209338;23;20386;-96
2023/10/25 00:32:38;;;;;;;3.83;3.17;;;;;;;;;;6205874;23;20426;-94
2023/10/25 00:35:04;;;;;;;4.70;3.03;;;;;;;;;;6207655;23;20396;-95
2023/10/25 00:37:33;;;;;;;3.63;3.33;;;;;;;;;;6204620;23;20385;-95
2023/10/25 00:39:59;;;;;;;4.73;3.97;;;;;;;;;;6229582;23;20382;-96
2023/10/25 00:42:25;;;;;;;3.90;3.10;;;;;;;;;;6203567;23;20362;-94
2023/10/25 00:44:52;;;;;;;3.60;3.27;;;;;;;;;;6206506;23;20410;-94
2023/10/25 00:47:18;;;;;;;4.20;3.60;;;;;;;;;;6203192;23;20835;-94
2023/10/25 00:49:44;;;;;;;3.50;3.20;;;;;;;;;;6204488;23;20390;-94
2023/10/25 00:52:10;;;;;;;5.13;3.97;;;;;;;;;;6204434;23;20889;-95
2023/10/25 00:54:36;;;;;;;8.47;3.57;;;;;;;;;;6208221;23;20374;-95
2023/10/25 00:57:02;;;;;;;4.57;4.07;;;;;;;;;;6200101;23;20430;-94
2023/10/25 00:59:29;;;;;;;3.00;2.73;;;;;;;;;;6176863;23;20390;-95
2023/10/25 01:01:56;;;;;;;5.70;3.07;;;;;;;;;;6178592;23;20478;-93
2023/10/25 01:04:22;;;;;;;4.50;3.97;;;;;;;;;;6173956;23;20466;-95
2023/10/25 01:06:48;;;;;;;4.57;3.90;;;;;;;;;;6177662;23;20375;-96
2023/10/25 01:09:14;;;;;;;3.93;3.03;;;;;;;;;;6174070;23;20399;-94
2023/10/25 01:11:40;;;;;;;4.33;3.93;;;;;;;;;;6175181;23;20430;-94
2023/10/25 01:14:06;;;;;;;4.33;3.57;;;;;;;;;;6171461;23;20910;-94
2023/10/25 01:16:32;;;;;;;5.30;3.33;;;;;;;;;;6176265;23;20379;-95
2023/10/25 01:18:58;;;;;;;6.20;3.93;;;;;;;;;;6172858;23;20562;-94
2023/10/25 01:21:24;;;;;;;4.00;3.43;;;;;;;;;;6175872;23;20391;-95
2023/10/25 01:23:51;;;;;;;4.23;3.57;;;;;;;;;;6174708;23;20387;-94
2023/10/25 01:26:17;;;;;;;9.80;4.63;;;;;;;;;;6177332;23;20458;-94
2023/10/25 01:28:43;;;;;;;5.40;3.60;;;;;;;;;;6172033;23;20387;-95
2023/10/25 01:33:47;;;;;;;8.93;4.23;;;;;;;;;;6224405;23;20418;-93
2023/10/25 01:36:13;;;;;;;3.50;3.20;;;;;;;;;;6225568;23;20371;-93
2023/10/25 01:38:39;;;;;;;4.50;3.27;;;;;;;;;;6200136;23;20430;-93
2023/10/25 01:41:05;;;;;;;3.90;2.80;;;;;;;;;;6204217;23;20470;-93
2023/10/25 01:43:32;;;;;;;5.30;3.97;;;;;;;;;;6203419;23;20395;-93
2023/10/25 01:45:59;;;;;;;4.83;2.73;;;;;;;;;;6201570;23;20403;-93
2023/10/25 01:48:25;;;;;;;4.00;3.60;;;;;;;;;;6177286;23;20483;-94
2023/10/25 01:50:54;;;;;;;4.20;3.47;;;;;;;;;;6174065;23;20381;-94
2023/10/25 01:53:20;;;;;;;3.77;3.40;;;;;;;;;;6179113;23;20429;-93
2023/10/25 01:55:48;;;;;;;3.23;2.83;;;;;;;;;;6174146;23;20424;-94
2023/10/25 01:58:17;;;;;;;4.90;2.97;;;;;;;;;;6178725;23;20359;-93
2023/10/25 02:00:43;;;;;;;3.77;3.40;;;;;;;;;;6174659;23;20383;-93
2023/10/25 02:03:09;;;;;;;3.40;3.00;;;;;;;;;;6180902;23;20394;-95
2023/10/25 02:05:35;;;;;;;3.27;2.87;;;;;;;;;;6172330;23;20391;-93
2023/10/25 02:08:01;;;;;;;5.50;3.00;;;;;;;;;;6171718;23;20435;-93
2023/10/25 02:10:27;;;;;;;4.20;3.50;;;;;;;;;;6172411;23;20406;-93
2023/10/25 02:12:53;;;;;;;5.57;3.83;;;;;;;;;;6172673;23;21240;-93
2023/10/25 02:15:19;;;;;;;5.43;3.40;;;;;;;;;;6179156;23;20384;-93
2023/10/25 02:17:45;;;;;;;3.87;3.17;;;;;;;;;;6193634;23;20398;-93
2023/10/25 02:20:12;;;;;;;3.13;2.83;;;;;;;;;;6200088;23;20382;-93
2023/10/25 02:22:38;;;;;;;3.30;2.70;;;;;;;;;;6198100;22;20626;-93
2023/10/25 02:25:04;;;;;;;3.63;3.33;;;;;;;;;;6197635;22;20466;-94
2023/10/25 02:27:30;;;;;;;3.13;2.93;;;;;;;;;;6195047;23;20387;-93
2023/10/25 02:29:56;;;;;;;3.27;3.00;;;;;;;;;;6198616;23;20449;-94
2023/10/25 02:32:22;;;;;;;3.40;3.10;;;;;;;;;;6197422;23;20427;-94
2023/10/25 02:34:48;;;;;;;3.70;3.07;;;;;;;;;;6204214;23;20406;-95
2023/10/25 02:37:14;;;;;;;4.73;2.87;;;;;;;;;;6198246;23;20383;-93
2023/10/25 02:39:42;;;;;;;7.83;3.10;;;;;;;;;;6199967;23;20382;-93
2023/10/25 02:42:08;;;;;;;4.90;3.17;;;;;;;;;;6199715;23;20391;-94
2023/10/25 02:44:35;;;;;;;8.43;3.00;;;;;;;;;;6196840;23;20395;-93
2023/10/25 02:47:01;;;;;;;3.27;2.97;;;;;;;;;;6224084;23;20374;-95
2023/10/25 02:49:33;;;;;;;4.10;3.20;;;;;;;;;;6197978;23;20696;-93
2023/10/25 02:51:59;;;;;;;9.33;3.03;;;;;;;;;;6222974;23;20521;-93
2023/10/25 02:54:26;;;;;;;3.83;3.30;;;;;;;;;;6199416;23;20414;-93
2023/10/25 02:56:52;;;;;;;5.40;2.80;;;;;;;;;;6191678;23;20374;-93
2023/10/25 02:59:19;;;;;;;2.70;2.50;;;;;;;;;;6167302;23;20404;-93
2023/10/25 03:01:45;;;;;;;3.20;2.90;;;;;;;;;;6168049;23;20392;-92
2023/10/25 03:04:15;;;;;;;5.90;3.70;;;;;;;;;;6168510;23;20396;-92
2023/10/25 03:06:41;;;;;;;3.73;3.23;;;;;;;;;;6170970;23;20388;-94
2023/10/25 03:09:07;;;;;;;4.57;3.10;;;;;;;;;;6167997;23;20391;-94
2023/10/25 03:11:39;;;;;;;3.33;2.90;;;;;;;;;;6170576;23;20919;-96
2023/10/25 03:14:05;;;;;;;3.57;2.77;;;;;;;;;;6155272;23;20408;-96
2023/10/25 03:16:31;;;;;;;3.10;2.77;;;;;;;;;;6177789;23;20412;-96
2023/10/25 03:18:57;;;;;;;3.43;2.80;;;;;;;;;;6168427;23;20403;-93
2023/10/25 03:21:24;;;;;;;4.53;3.37;;;;;;;;;;6170296;23;20391;-93
2023/10/25 03:23:50;;;;;;;3.73;2.83;;;;;;;;;;6168690;23;20439;-93
2023/10/25 03:26:16;;;;;;;4.30;2.80;;;;;;;;;;6169928;23;20383;-93
2023/10/25 03:28:42;;;;;;;3.03;2.40;;;;;;;;;;6168288;23;20387;-94
2023/10/25 03:31:08;;;;;;;2.17;1.97;;;;;;;;;;6171899;23;20459;-93
2023/10/25 03:33:34;;;;;;;2.67;2.47;;;;;;;;;;6178414;22;20383;-94
2023/10/25 03:36:00;;;;;;;2.40;2.20;;;;;;;;;;6206636;23;20407;-93
2023/10/25 03:38:26;;;;;;;2.70;2.13;;;;;;;;;;6200526;23;20433;-92
2023/10/25 03:41:02;;;;;;;4.70;3.70;;;;;;;;;;6225532;23;20367;-93
2023/10/25 03:43:28;;;;;;;4.40;2.40;;;;;;;;;;6225587;23;20375;-92
2023/10/25 03:45:54;;;;;;;2.47;2.27;;;;;;;;;;6199867;23;20726;-93
2023/10/25 03:48:20;;;;;;;4.00;3.30;;;;;;;;;;6201319;23;20387;-94
2023/10/25 03:50:46;;;;;;;6.37;3.30;;;;;;;;;;6200183;23;20391;-94
2023/10/25 03:53:12;;;;;;;4.70;3.77;;;;;;;;;;6204154;23;20862;-94
2023/10/25 03:55:38;;;;;;;2.93;2.63;;;;;;;;;;6200177;23;20457;-94
2023/10/25 03:58:04;;;;;;;4.90;3.37;;;;;;;;;;6226789;22;20375;-94
2023/10/25 04:00:30;;;;;;;4.30;2.70;;;;;;;;;;6200607;23;20406;-93
2023/10/25 04:02:56;;;;;;;3.67;3.37;;;;;;;;;;6202851;23;20433;-94
2023/10/25 04:05:22;;;;;;;3.77;3.40;;;;;;;;;;6200538;23;20703;-93
2023/10/25 04:07:51;;;;;;;3.07;2.50;;;;;;;;;;6206621;23;20439;-94
2023/10/25 04:10:18;;;;;;;3.83;3.50;;;;;;;;;;6201774;23;20379;-93
2023/10/25 04:12:44;;;;;;;5.10;3.53;;;;;;;;;;6201701;23;20422;-93
2023/10/25 04:15:10;;;;;;;3.47;2.43;;;;;;;;;;6200270;23;20395;-95
2023/10/25 04:17:36;;;;;;;3.77;3.47;;;;;;;;;;6207531;23;20386;-93
2023/10/25 04:20:02;;;;;;;3.40;2.80;;;;;;;;;;6200378;23;20387;-94
2023/10/25 04:22:28;;;;;;;3.10;2.77;;;;;;;;;;6202652;23;20375;-93
2023/10/25 04:24:57;;;;;;;3.57;2.90;;;;;;;;;;6202961;23;20383;-92
2023/10/25 04:27:24;;;;;;;2.77;2.40;;;;;;;;;;6204814;23;20373;-93
2023/10/25 04:29:50;;;;;;;2.80;2.60;;;;;;;;;;6229059;23;20405;-93
2023/10/25 04:32:17;;;;;;;3.17;2.87;;;;;;;;;;6202487;23;20431;-92
2023/10/25 04:34:43;;;;;;;3.53;2.60;;;;;;;;;;6226536;23;20470;-93
2023/10/25 04:37:09;;;;;;;5.80;2.90;;;;;;;;;;6203346;23;20383;-92
2023/10/25 04:39:35;;;;;;;3.23;2.63;;;;;;;;;;6201701;23;20442;-92
2023/10/25 04:42:02;;;;;;;4.53;2.33;;;;;;;;;;6200430;23;20491;-94
2023/10/25 04:44:28;;;;;;;3.27;3.00;;;;;;;;;;6202681;23;20410;-93
2023/10/25 04:46:54;;;;;;;3.33;2.90;;;;;;;;;;6199505;23;20754;-93
2023/10/25 04:49:20;;;;;;;3.23;2.93;;;;;;;;;;6202503;23;20398;-94
2023/10/25 04:51:47;;;;;;;2.87;2.60;;;;;;;;;;6201050;23;20423;-93
2023/10/25 04:54:13;;;;;;;3.30;2.60;;;;;;;;;;6203359;23;20383;-92
2023/10/25 04:56:39;;;;;;;3.20;2.67;;;;;;;;;;6203052;23;20546;-93
2023/10/25 04:59:05;;;;;;;2.50;2.30;;;;;;;;;;6206015;23;20399;-94
2023/10/25 05:01:31;;;;;;;4.40;3.40;;;;;;;;;;6206303;23;20383;-94
2023/10/25 05:03:58;;;;;;;5.23;2.90;;;;;;;;;;6201731;23;20395;-93
2023/10/25 05:06:25;;;;;;;2.37;2.20;;;;;;;;;;6229935;22;20410;-95
2023/10/25 05:08:51;;;;;;;5.60;2.63;;;;;;;;;;6202719;23;20402;-92
2023/10/25 05:11:17;;;;;;;3.40;2.60;;;;;;;;;;6208785;22;20439;-94
2023/10/25 05:13:43;;;;;;;2.83;2.30;;;;;;;;;;6202502;23;20403;-93
2023/10/25 05:16:09;;;;;;;3.00;2.50;;;;;;;;;;6201283;22;20363;-94
2023/10/25 05:18:36;;;;;;;2.57;2.37;;;;;;;;;;6202842;23;20419;-92
2023/10/25 05:21:05;;;;;;;2.70;2.40;;;;;;;;;;6201423;23;20410;-93
2023/10/25 05:23:31;;;;;;;4.00;2.60;;;;;;;;;;6226087;22;20759;-93
2023/10/25 05:26:02;;;;;;;4.00;2.90;;;;;;;;;;6202952;23;21258;-94
2023/10/25 05:28:29;;;;;;;2.73;2.50;;;;;;;;;;6227297;22;20391;-93
2023/10/25 05:30:56;;;;;;;2.17;1.97;;;;;;;;;;6203018;23;20865;-95
2023/10/25 05:33:25;;;;;;;2.50;2.30;;;;;;;;;;6203638;23;20374;-95
2023/10/25 05:35:51;;;;;;;4.23;2.97;;;;;;;;;;6229148;22;20407;-96
2023/10/25 05:38:17;;;;;;;3.97;2.93;;;;;;;;;;6206266;23;20375;-95
2023/10/25 05:40:43;;;;;;;4.30;3.27;;;;;;;;;;6204664;23;20387;-95
2023/10/25 05:50:56;;;;;;;57.80;8.47;;;;;;;;;;6238762;22;20420;-95
2023/10/25 05:53:24;;;;;;;1999.90;999.90;;;;;;;;;;6211286;23;20394;-95
2023/10/25 05:55:50;;;;;;;1999.90;999.90;;;;;;;;;;6211869;23;20404;-95
2023/10/25 05:58:16;;;;;;;1999.90;999.90;;;;;;;;;;6213133;23;20369;-95
2023/10/25 06:00:48;;;;;;;1999.90;999.90;;;;;;;;;;6210937;23;20374;-96
2023/10/25 06:03:15;;;;;;;103.47;71.67;;;;;;;;;;6214237;23;20390;-95
2023/10/25 06:05:41;;;;;;;62.47;34.83;;;;;;;;;;6233787;23;20446;-96
2023/10/25 06:08:07;;;;;;;51.10;10.00;;;;;;;;;;6213277;23;20394;-95
2023/10/25 06:10:35;;;;;;;67.33;26.30;;;;;;;;;;6211661;23;20493;-95
2023/10/25 06:28:36;;;;;;;54.27;12.43;;;;;;;;;;6226809;23;20906;-94
2023/10/25 06:31:02;;;;;;;46.70;4.87;;;;;;;;;;6176496;23;20386;-92
2023/10/25 06:33:33;;;;;;;43.60;3.97;;;;;;;;;;6169967;23;20365;-93
2023/10/25 06:36:01;;;;;;;41.37;3.13;;;;;;;;;;6137942;23;20433;-91
2023/10/25 06:38:27;;;;;;;40.20;3.07;;;;;;;;;;6075545;23;20380;-91
2023/10/25 06:40:53;;;;;;;40.00;2.67;;;;;;;;;;6053708;23;20383;-90
2023/10/25 06:43:19;;;;;;;37.40;2.40;;;;;;;;;;6051410;23;20396;-93
2023/10/25 06:45:49;;;;;;;42.70;3.33;;;;;;;;;;6052554;23;20396;-94
2023/10/25 06:48:22;;;;;;;40.33;3.00;;;;;;;;;;6059943;23;20394;-92
2023/10/25 07:34:59;;;;;;;25.77;2.60;;;;;;;;;;6258097;22;20476;-96
2023/10/25 07:37:28;;;;;;;28.10;2.20;;;;;;;;;;6215673;23;20757;-95
2023/10/25 08:19:05;;;;;;;1999.90;999.90;;;;;;;;;;6263862;22;20417;-96
2023/10/25 08:21:35;;;;;;;89.17;60.37;;;;;;;;;;6245472;22;20442;-95
2023/10/25 08:24:07;;;;;;;1999.90;999.90;;;;;;;;;;6243617;23;20401;-96
2023/10/25 08:26:41;;;;;;;161.03;147.47;;;;;;;;;;6244221;23;20398;-96
2023/10/25 08:29:07;;;;;;;1999.90;999.90;;;;;;;;;;6220672;23;20398;-96
2023/10/25 08:31:39;;;;;;;81.90;26.10;;;;;;;;;;6222097;22;20433;-95
2023/10/25 08:47:25;;;;;;;100.00;53.00;;;;;;;;;;6260050;22;20485;-95
2023/10/25 08:49:52;;;;;;;99.33;52.00;;;;;;;;;;6213283;23;20386;-96
2023/10/25 08:52:23;;;;;;;100.13;55.20;;;;;;;;;;6213220;23;20461;-96
2023/10/25 08:54:51;;;;;;;97.20;51.90;;;;;;;;;;6263888;22;20421;-95
2023/10/25 08:57:18;;;;;;;98.27;54.00;;;;;;;;;;6212725;23;20379;-95
2023/10/25 08:59:47;;;;;;;98.60;52.70;;;;;;;;;;6212982;22;20424;-94
2023/10/25 09:02:14;;;;;;;95.30;47.23;;;;;;;;;;6260420;22;20402;-91
2023/10/25 09:05:03;;;;;;;97.33;50.87;;;;;;;;;;6207991;23;20424;-94
2023/10/25 09:07:30;;;;;;;98.67;53.40;;;;;;;;;;6233608;23;20378;-92
2023/10/25 09:09:56;;;;;;;95.50;46.07;;;;;;;;;;6209417;23;20794;-93
2023/10/25 09:12:31;;;;;;;95.47;47.07;;;;;;;;;;6196440;22;20456;-91
2023/10/25 09:20:09;;;;;;;89.47;38.93;;;;;;;;;;6203412;22;20437;-95
2023/10/25 09:22:36;;;;;;;88.40;35.70;;;;;;;;;;6232351;23;20737;-94
2023/10/25 09:25:03;;;;;;;91.17;40.67;;;;;;;;;;6151158;23;20385;-93
2023/10/25 09:27:30;;;;;;;91.60;41.80;;;;;;;;;;6117208;23;21084;-92
2023/10/25 09:53:22;;;;;;;90.20;38.97;;;;;;;;;;6263849;22;20512;-95
2023/10/25 09:55:54;;;;;;;89.67;38.40;;;;;;;;;;6242016;23;20449;-94
2023/10/25 09:58:22;;;;;;;89.13;36.13;;;;;;;;;;6213502;23;20505;-93
2023/10/25 10:00:48;;;;;;;89.20;36.27;;;;;;;;;;6213945;23;20449;-92
2023/10/25 10:03:35;;;;;;;90.50;39.10;;;;;;;;;;6209310;23;20382;-93
2023/10/25 10:06:08;;;;;;;90.70;38.97;;;;;;;;;;6210693;23;20374;-91
2023/10/25 10:08:53;;;;;;;91.40;38.50;;;;;;;;;;6213267;23;20429;-93
2023/10/25 10:11:22;;;;;;;90.17;36.40;;;;;;;;;;6236802;23;20426;-94
2023/10/25 10:14:08;;;;;;;89.47;33.70;;;;;;;;;;6234393;23;21172;-94
2023/10/25 10:19:11;;;;;;;89.50;33.83;;;;;;;;;;6257046;22;20418;-93
2023/10/25 10:21:57;;;;;;;89.97;35.23;;;;;;;;;;6208306;23;20393;-93
2023/10/25 10:24:48;;;;;;;89.70;38.10;;;;;;;;;;6233177;23;20386;-94
2023/10/25 10:27:19;;;;;;;91.60;40.70;;;;;;;;;;6238188;23;20414;-93
2023/10/25 10:30:06;;;;;;;91.97;42.37;;;;;;;;;;6179487;23;20483;-94
2023/10/25 10:32:55;;;;;;;92.37;43.90;;;;;;;;;;6201455;23;20443;-96
2023/10/25 10:35:22;;;;;;;96.47;53.57;;;;;;;;;;6178772;23;20406;-94
2023/10/25 10:37:57;;;;;;;94.10;47.83;;;;;;;;;;6181389;23;20384;-96
2023/10/25 10:40:23;;;;;;;112.40;85.80;;;;;;;;;;6176402;23;20415;-95
2023/10/25 10:42:52;;;;;;;113.37;88.27;;;;;;;;;;6174247;23;20451;-96
2023/10/25 10:45:20;;;;;;;109.87;78.50;;;;;;;;;;6142543;23;20401;-96
2023/10/25 10:47:56;;;;;;;109.77;75.67;;;;;;;;;;6113521;23;20397;-95
2023/10/25 10:52:59;;;;;;;116.67;89.67;;;;;;;;;;6218079;23;20525;-93
2023/10/25 10:55:34;;;;;;;115.50;85.13;;;;;;;;;;6183176;23;20371;-93
2023/10/25 10:58:02;;;;;;;117.40;90.97;;;;;;;;;;6187250;23;20422;-94
2023/10/25 11:00:29;;;;;;;119.57;96.10;;;;;;;;;;6189724;23;20413;-94
2023/10/25 11:02:58;;;;;;;119.27;94.43;;;;;;;;;;6121412;23;20394;-96
2023/10/25 11:05:24;;;;;;;118.80;94.57;;;;;;;;;;6120841;23;20404;-93
2023/10/25 11:07:57;;;;;;;118.47;93.07;;;;;;;;;;6090270;23;20419;-94
2023/10/25 11:16:08;;;;;;;115.87;87.57;;;;;;;;;;6231558;22;20426;-94
2023/10/25 11:18:35;;;;;;;115.87;86.50;;;;;;;;;;6197661;23;21307;-92
2023/10/25 11:21:02;;;;;;;115.37;84.87;;;;;;;;;;6142966;23;20425;-93
2023/10/25 11:28:45;;;;;;;1999.90;999.90;;;;;;;;;;6228200;22;20442;-95
2023/10/25 11:31:13;;;;;;;1999.90;999.90;;;;;;;;;;6204907;23;20410;-94
2023/10/25 11:33:47;;;;;;;1999.90;999.90;;;;;;;;;;6183974;23;20386;-95
2023/10/25 11:36:20;;;;;;;1999.90;999.90;;;;;;;;;;6207649;23;20392;-95
2023/10/25 11:38:49;;;;;;;1999.90;999.90;;;;;;;;;;6208680;23;20374;-96
2023/10/25 11:41:15;;;;;;;1999.90;999.90;;;;;;;;;;6182606;23;20437;-95
2023/10/25 11:43:42;;;;;;;1999.90;999.90;;;;;;;;;;6184260;23;20422;-94
2023/10/25 11:46:08;;;;;;;1999.90;999.90;;;;;;;;;;6183403;23;20414;-96
2023/10/25 11:48:36;;;;;;;1999.90;999.90;;;;;;;;;;6184775;23;20391;-92
2023/10/25 11:51:04;;;;;;;1999.90;999.90;;;;;;;;;;6207334;23;20394;-96
2023/10/25 12:22:05;;;;;;;1.47;1.33;;;;;;;;;;6234846;22;20420;-94
2023/10/25 12:27:09;;;;;;;1.10;0.73;;;;;;;;;;6241757;22;20520;-94
2023/10/25 12:52:58;;;;;;;2.60;1.50;;;;;;;;;;6262797;22;20444;-96
2023/10/25 13:00:36;;;;;;;2.33;2.00;;;;;;;;;;6233102;23;20536;-92
2023/10/25 13:03:06;;;;;;;1.80;1.30;;;;;;;;;;6208332;23;20417;-91
2023/10/25 13:05:32;;;;;;;2.83;1.30;;;;;;;;;;6230915;23;20405;-93
2023/10/25 13:07:59;;;;;;;2.30;0.90;;;;;;;;;;6206801;23;20442;-89
2023/10/25 13:10:25;;;;;;;1.33;0.80;;;;;;;;;;6203707;23;20408;-91
2023/10/25 13:12:52;;;;;;;0.73;0.60;;;;;;;;;;6205065;23;20430;-91
2023/10/25 13:15:21;;;;;;;1.77;1.10;;;;;;;;;;6207970;23;20393;-94
2023/10/25 13:17:47;;;;;;;1.87;1.23;;;;;;;;;;6209416;23;20829;-93
2023/10/25 13:20:15;;;;;;;1.77;1.60;;;;;;;;;;6208757;23;20394;-92
2023/10/25 13:22:41;;;;;;;1.00;0.90;;;;;;;;;;6213721;23;20390;-92
2023/10/25 13:25:08;;;;;;;1.43;1.00;;;;;;;;;;6142771;23;20502;-92
2023/10/25 13:27:34;;;;;;;3.00;2.07;;;;;;;;;;6124768;23;20389;-94
2023/10/25 13:30:01;;;;;;;1.67;1.10;;;;;;;;;;6119735;23;20392;-92
2023/10/25 13:32:28;;;;;;;2.50;1.53;;;;;;;;;;6116431;23;20475;-90
2023/10/25 13:34:55;;;;;;;0.90;0.80;;;;;;;;;;6115592;23;20392;-91
2023/10/25 13:37:21;;;;;;;2.20;0.80;;;;;;;;;;6116205;23;20371;-92
2023/10/25 13:39:48;;;;;;;4.50;2.20;;;;;;;;;;6109455;23;20389;-92
2023/10/25 13:42:14;;;;;;;1.10;0.90;;;;;;;;;;6110353;23;20385;-91
2023/10/25 13:44:40;;;;;;;1.87;1.27;;;;;;;;;;6109077;23;20421;-90
2023/10/25 13:47:06;;;;;;;1.17;1.07;;;;;;;;;;6108550;23;20396;-89
2023/10/25 13:49:32;;;;;;;1.17;0.77;;;;;;;;;;6111498;23;20388;-91
2023/10/25 13:51:59;;;;;;;1.27;1.17;;;;;;;;;;6107870;23;20536;-91
2023/10/25 13:54:25;;;;;;;1.50;1.03;;;;;;;;;;6107561;23;20385;-91
2023/10/25 13:56:53;;;;;;;2.40;1.07;;;;;;;;;;6089171;23;20409;-92
2023/10/25 13:59:19;;;;;;;1.60;1.13;;;;;;;;;;6133945;23;20377;-91
2023/10/25 14:01:46;;;;;;;2.00;1.20;;;;;;;;;;6134554;23;20417;-93
2023/10/25 14:04:12;;;;;;;5.57;1.30;;;;;;;;;;6133635;23;20385;-92
2023/10/25 14:06:40;;;;;;;1.60;1.10;;;;;;;;;;6134587;23;20787;-91
2023/10/25 14:09:06;;;;;;;0.93;0.87;;;;;;;;;;6131169;23;20373;-90
2023/10/25 14:11:34;;;;;;;3.43;0.87;;;;;;;;;;6156959;23;20859;-91
2023/10/25 14:14:00;;;;;;;1.20;0.70;;;;;;;;;;6140126;23;20381;-92
2023/10/25 14:16:27;;;;;;;1.07;0.80;;;;;;;;;;6138149;23;20377;-92
2023/10/25 14:18:53;;;;;;;1.37;1.10;;;;;;;;;;6138844;23;20385;-92
2023/10/25 14:21:23;;;;;;;1.40;1.27;;;;;;;;;;6189146;23;20391;-93
2023/10/25 14:23:51;;;;;;;1.63;1.17;;;;;;;;;;6225884;23;20374;-90
2023/10/25 14:26:21;;;;;;;2.20;1.00;;;;;;;;;;6196382;23;20387;-91
2023/10/25 14:28:47;;;;;;;2.73;1.40;;;;;;;;;;6228318;23;20437;-90
2023/10/25 14:31:14;;;;;;;1.80;1.30;;;;;;;;;;6199074;23;20382;-91
2023/10/25 14:33:40;;;;;;;1.20;1.00;;;;;;;;;;6200829;23;20472;-91
2023/10/25 14:36:12;;;;;;;1.70;1.47;;;;;;;;;;6221514;23;20839;-90
2023/10/25 14:38:40;;;;;;;6.80;1.50;;;;;;;;;;6196873;23;20371;-91
2023/10/25 14:41:08;;;;;;;1.60;1.50;;;;;;;;;;6223605;23;20367;-92
2023/10/25 14:43:34;;;;;;;1.17;0.90;;;;;;;;;;6199736;23;20865;-91
2023/10/25 14:46:00;;;;;;;2.20;0.93;;;;;;;;;;6196553;23;20466;-91
2023/10/25 14:48:26;;;;;;;4.20;1.23;;;;;;;;;;6201120;23;20433;-91
2023/10/25 14:50:52;;;;;;;3.30;1.67;;;;;;;;;;6202195;23;20391;-90
2023/10/25 14:53:19;;;;;;;1.67;1.03;;;;;;;;;;6199543;23;20422;-89
2023/10/25 14:55:45;;;;;;;8.50;1.27;;;;;;;;;;6199496;23;20383;-88
2023/10/25 14:58:11;;;;;;;10.80;1.47;;;;;;;;;;6205383;23;20399;-89
2023/10/25 15:00:38;;;;;;;2.20;1.10;;;;;;;;;;6199629;23;20382;-89
2023/10/25 15:03:04;;;;;;;2.17;1.40;;;;;;;;;;6203307;23;20387;-88
2023/10/25 15:05:37;;;;;;;4.73;0.90;;;;;;;;;;6198693;23;20389;-88
2023/10/25 15:08:03;;;;;;;3.43;0.90;;;;;;;;;;6201023;23;20386;-88
2023/10/25 15:10:32;;;;;;;1.83;1.23;;;;;;;;;;6201221;23;20467;-90
2023/10/25 15:12:58;;;;;;;0.90;0.80;;;;;;;;;;6231692;22;20427;-90
2023/10/25 15:15:26;;;;;;;2.60;0.83;;;;;;;;;;6202724;23;20418;-90
2023/10/25 15:17:52;;;;;;;1.00;0.90;;;;;;;;;;6206570;23;20383;-89
2023/10/25 15:20:21;;;;;;;0.90;0.80;;;;;;;;;;6200894;23;20469;-88
2023/10/25 15:22:47;;;;;;;1.57;1.00;;;;;;;;;;6230364;23;20386;-89
2023/10/25 15:25:14;;;;;;;5.13;1.17;;;;;;;;;;6197690;23;20366;-89
2023/10/25 15:27:40;;;;;;;1.93;1.20;;;;;;;;;;6198780;23;20809;-88
2023/10/25 15:30:11;;;;;;;1.37;1.00;;;;;;;;;;6199239;23;20446;-88
2023/10/25 15:32:37;;;;;;;1.03;0.93;;;;;;;;;;6206356;23;20438;-89
2023/10/25 15:35:05;;;;;;;1.10;0.80;;;;;;;;;;6201482;23;20460;-88
2023/10/25 15:37:31;;;;;;;1.20;1.00;;;;;;;;;;6198810;23;20433;-89
2023/10/25 15:39:59;;;;;;;1.00;0.70;;;;;;;;;;6203423;23;20391;-89
2023/10/25 15:42:29;;;;;;;1.43;0.90;;;;;;;;;;6200848;23;20407;-89
2023/10/25 15:44:55;;;;;;;1.10;0.80;;;;;;;;;;6231647;23;20363;-90
2023/10/25 15:47:21;;;;;;;1.63;0.80;;;;;;;;;;6200043;23;20367;-90
2023/10/25 15:49:50;;;;;;;2.13;0.90;;;;;;;;;;6204900;23;20917;-91
2023/10/25 15:52:16;;;;;;;1.40;1.10;;;;;;;;;;6201378;23;20565;-92
2023/10/25 15:54:42;;;;;;;3.10;0.90;;;;;;;;;;6204401;23;20386;-90
2023/10/25 15:57:11;;;;;;;1.90;1.57;;;;;;;;;;6231179;23;20374;-94
2023/10/25 15:59:37;;;;;;;1.80;1.10;;;;;;;;;;6234998;22;20406;-95
2023/10/25 16:02:04;;;;;;;1.90;1.50;;;;;;;;;;6208576;23;20446;-94
2023/10/25 16:04:30;;;;;;;2.47;1.33;;;;;;;;;;6214069;23;20378;-96
2023/10/25 16:06:57;;;;;;;2.70;1.67;;;;;;;;;;6207885;23;20462;-89
2023/10/25 16:09:26;;;;;;;1.90;1.00;;;;;;;;;;6205023;23;20386;-91
2023/10/25 16:11:52;;;;;;;1.07;1.00;;;;;;;;;;6202792;23;20797;-91
2023/10/25 16:14:18;;;;;;;2.53;1.70;;;;;;;;;;6200896;23;20388;-90
2023/10/25 16:16:44;;;;;;;1.20;0.90;;;;;;;;;;6201715;23;20375;-90
2023/10/25 16:19:12;;;;;;;1.93;1.33;;;;;;;;;;6201635;23;20387;-89
2023/10/25 16:21:38;;;;;;;1.53;1.20;;;;;;;;;;6202031;23;20383;-90
2023/10/25 16:24:06;;;;;;;1.67;1.37;;;;;;;;;;6204389;23;20370;-89
2023/10/25 16:26:32;;;;;;;1.53;1.17;;;;;;;;;;6231175;23;20368;-89
2023/10/25 16:29:01;;;;;;;4.20;1.20;;;;;;;;;;6200834;22;20363;-90
2023/10/25 16:31:27;;;;;;;1.90;1.23;;;;;;;;;;6208115;23;20434;-90
2023/10/25 16:33:56;;;;;;;1.47;1.23;;;;;;;;;;6199712;23;20521;-90
2023/10/25 16:36:22;;;;;;;1.37;0.90;;;;;;;;;;6232140;23;20372;-90
2023/10/25 16:38:48;;;;;;;2.70;1.50;;;;;;;;;;6198920;23;20698;-90
2023/10/25 16:41:14;;;;;;;1.10;1.03;;;;;;;;;;6204174;23;20884;-90
2023/10/25 16:43:40;;;;;;;1.87;1.10;;;;;;;;;;6199609;23;20387;-89
2023/10/25 16:46:07;;;;;;;1.30;1.20;;;;;;;;;;6201219;23;20415;-90
2023/10/25 16:48:36;;;;;;;2.53;1.40;;;;;;;;;;6226179;23;20367;-89
2023/10/25 16:51:14;;;;;;;1.90;1.43;;;;;;;;;;6205915;23;20394;-90
2023/10/25 16:53:43;;;;;;;1.77;1.23;;;;;;;;;;6201182;23;21074;-89
2023/10/25 16:56:09;;;;;;;1.13;1.03;;;;;;;;;;6231804;22;20399;-89
2023/10/25 16:58:36;;;;;;;2.00;1.20;;;;;;;;;;6203936;23;20397;-89
2023/10/25 17:01:02;;;;;;;1.40;1.30;;;;;;;;;;6209434;23;20417;-90
2023/10/25 17:03:28;;;;;;;2.03;1.20;;;;;;;;;;6207527;23;20413;-90
2023/10/25 17:05:56;;;;;;;11.97;8.23;;;;;;;;;;6212414;23;20424;-92
2023/10/25 17:08:22;;;;;;;1.20;1.10;;;;;;;;;;6206945;23;20417;-90
2023/10/25 17:10:53;;;;;;;1999.90;999.90;;;;;;;;;;6208978;23;20436;-90
2023/10/25 17:13:21;;;;;;;1.07;0.97;;;;;;;;;;6174359;23;20440;-90
2023/10/25 17:15:47;;;;;;;3.37;1.33;;;;;;;;;;6145733;23;20368;-91
2023/10/25 17:18:14;;;;;;;3.30;1.30;;;;;;;;;;6145476;23;20867;-90
2023/10/25 17:20:41;;;;;;;2.07;1.00;;;;;;;;;;6144423;23;20394;-92
2023/10/25 17:23:07;;;;;;;5.03;4.53;;;;;;;;;;6148196;23;20478;-91
2023/10/25 17:25:34;;;;;;;11.13;5.03;;;;;;;;;;6144259;23;20395;-91
2023/10/25 17:28:02;;;;;;;5.40;0.90;;;;;;;;;;6149529;23;20407;-91
2023/10/25 17:30:28;;;;;;;5.50;0.97;;;;;;;;;;6146861;23;20388;-89
2023/10/25 17:32:55;;;;;;;17.43;15.50;;;;;;;;;;6152085;23;20443;-89
2023/10/25 17:35:22;;;;;;;6.50;0.93;;;;;;;;;;6145574;23;20395;-91
2023/10/25 17:37:52;;;;;;;3.00;0.70;;;;;;;;;;6152846;23;20372;-90
2023/10/25 17:40:19;;;;;;;2.60;0.80;;;;;;;;;;6173998;23;20387;-90
2023/10/25 17:42:45;;;;;;;3.03;0.67;;;;;;;;;;6146110;23;20399;-90
2023/10/25 17:45:11;;;;;;;3.03;1.13;;;;;;;;;;6203580;23;20387;-91
2023/10/25 17:47:48;;;;;;;2.60;0.50;;;;;;;;;;6204553;23;20461;-90
2023/10/25 17:50:15;;;;;;;5.10;1.10;;;;;;;;;;6209329;23;20385;-92
2023/10/25 17:52:41;;;;;;;2.40;0.80;;;;;;;;;;6206066;23;20426;-90
2023/10/25 17:55:07;;;;;;;2.33;0.73;;;;;;;;;;6209004;23;20402;-91
2023/10/25 17:57:33;;;;;;;3.07;0.90;;;;;;;;;;6207144;22;20409;-90
2023/10/25 17:59:59;;;;;;;2.97;0.97;;;;;;;;;;6208609;23;20382;-93
2023/10/25 18:02:25;;;;;;;2.40;0.80;;;;;;;;;;6203470;22;20508;-91
2023/10/25 18:04:51;;;;;;;2.27;0.60;;;;;;;;;;6206925;23;20397;-91
2023/10/25 18:07:17;;;;;;;2.20;0.70;;;;;;;;;;6204471;23;21070;-90
2023/10/25 18:09:44;;;;;;;2.50;0.60;;;;;;;;;;6211906;23;20453;-91
2023/10/25 18:12:11;;;;;;;3.80;0.60;;;;;;;;;;6207419;23;20434;-91
2023/10/25 18:14:37;;;;;;;11.47;9.03;;;;;;;;;;6204950;23;20402;-91
2023/10/25 18:17:04;;;;;;;12.07;2.27;;;;;;;;;;6206734;23;20889;-91
2023/10/25 18:19:34;;;;;;;30.43;27.47;;;;;;;;;;6230037;22;20386;-91
2023/10/25 18:22:00;;;;;;;1.53;1.20;;;;;;;;;;6209122;23;20394;-91